createdAt,value
2023-03-12T00:00:14.757Z,79.98
2023-03-12T00:01:14.759Z,80.09
2023-03-12T00:02:14.764Z,80.09
2023-03-12T00:03:14.745Z,80.13
2023-03-12T00:04:14.713Z,79.57
2023-03-12T00:05:14.705Z,79.57
2023-03-12T00:06:14.733Z,79.77
2023-03-12T00:07:14.677Z,80.19
2023-03-12T00:08:14.676Z,80.09
2023-03-12T00:09:14.658Z,80.19
2023-03-12T00:10:14.648Z,80.40
2023-03-12T00:11:14.635Z,80.09
2023-03-12T00:12:14.640Z,79.57
2023-03-12T00:13:14.613Z,79.46
2023-03-12T00:14:14.613Z,80.40
2023-03-12T00:15:14.598Z,79.88
2023-03-12T00:16:14.719Z,79.88
2023-03-12T00:17:14.570Z,79.88
2023-03-12T00:18:14.659Z,79.67
2023-03-12T00:19:14.631Z,79.77
2023-03-12T00:20:14.554Z,79.91
2023-03-12T00:21:14.522Z,79.67
2023-03-12T00:22:14.522Z,79.50
2023-03-12T00:23:14.502Z,79.98
2023-03-12T00:24:14.557Z,79.88
2023-03-12T00:25:14.497Z,79.77
2023-03-12T00:26:14.493Z,79.60
2023-03-12T00:27:14.459Z,79.91
2023-03-12T00:28:14.455Z,80.19
2023-03-12T00:29:14.431Z,79.57
2023-03-12T00:30:14.427Z,79.36
2023-03-12T00:31:14.516Z,79.46
2023-03-12T00:32:14.516Z,79.67
2023-03-12T00:33:14.387Z,79.39
2023-03-12T00:34:14.376Z,79.46
2023-03-12T00:35:14.393Z,79.91
2023-03-12T00:36:14.406Z,79.36
2023-03-12T00:37:14.345Z,79.67
2023-03-12T00:38:14.335Z,79.71
2023-03-12T00:39:14.377Z,79.60
2023-03-12T00:40:14.312Z,79.67
2023-03-12T00:41:14.313Z,79.67
2023-03-12T00:42:14.288Z,79.88
2023-03-12T00:43:14.281Z,80.23
2023-03-12T00:44:14.266Z,80.02
2023-03-12T00:45:14.269Z,79.36
2023-03-12T00:46:14.512Z,79.05
2023-03-12T00:47:14.245Z,79.25
2023-03-12T00:48:14.226Z,78.83
2023-03-12T00:49:14.233Z,78.83
2023-03-12T00:50:14.204Z,79.19
2023-03-12T00:51:14.203Z,79.36
2023-03-12T00:52:14.181Z,79.39
2023-03-12T00:53:14.165Z,79.15
2023-03-12T00:54:14.153Z,78.83
2023-03-12T00:55:14.153Z,78.97
2023-03-12T00:56:14.136Z,78.83
2023-03-12T00:57:14.123Z,78.87
2023-03-12T00:58:14.788Z,78.83
2023-03-12T00:59:14.107Z,78.94
2023-03-12T01:00:14.095Z,78.73
2023-03-12T01:01:14.185Z,78.42
2023-03-12T01:02:14.073Z,78.63
2023-03-12T01:03:14.053Z,78.52
2023-03-12T01:04:14.091Z,78.42
2023-03-12T01:05:14.045Z,78.63
2023-03-12T01:06:14.027Z,78.07
2023-03-12T01:07:14.042Z,77.97
2023-03-12T01:08:14.186Z,78.03
2023-03-12T01:09:14.018Z,77.97
2023-03-12T01:10:13.978Z,77.45
2023-03-12T01:11:13.975Z,77.31
2023-03-12T01:12:13.962Z,77.31
2023-03-12T01:13:13.950Z,77.51
2023-03-12T01:14:13.968Z,77.62
2023-03-12T01:15:13.934Z,77.41
2023-03-12T01:16:13.972Z,77.72
2023-03-12T01:17:13.905Z,77.20
2023-03-12T01:18:13.919Z,77.83
2023-03-12T01:19:13.897Z,76.78
2023-03-12T01:20:13.883Z,76.75
2023-03-12T01:21:13.877Z,76.75
2023-03-12T01:22:13.852Z,77.17
2023-03-12T01:23:13.884Z,76.33
2023-03-12T01:24:13.864Z,76.54
2023-03-12T01:25:13.821Z,76.12
2023-03-12T01:26:13.817Z,76.23
2023-03-12T01:27:13.874Z,76.23
2023-03-12T01:28:13.789Z,76.43
2023-03-12T01:29:13.803Z,76.23
2023-03-12T01:30:13.781Z,76.23
2023-03-12T01:31:13.818Z,76.43
2023-03-12T01:32:13.906Z,76.43
2023-03-12T01:33:13.735Z,76.23
2023-03-12T01:34:13.732Z,76.43
2023-03-12T01:35:13.749Z,76.33
2023-03-12T01:36:13.795Z,76.40
2023-03-12T01:37:13.687Z,76.20
2023-03-12T01:38:13.719Z,76.65
2023-03-12T01:39:13.698Z,76.92
2023-03-12T01:40:13.655Z,76.86
2023-03-12T01:41:13.641Z,76.86
2023-03-12T01:42:13.632Z,76.54
2023-03-12T01:43:13.626Z,77.17
2023-03-12T01:44:13.627Z,77.72
2023-03-12T01:45:13.599Z,77.31
2023-03-12T01:46:13.728Z,77.51
2023-03-12T01:47:13.578Z,77.93
2023-03-12T01:48:13.567Z,77.93
2023-03-12T01:49:13.569Z,77.93
2023-03-12T01:50:13.548Z,77.93
2023-03-12T01:51:13.535Z,77.93
2023-03-12T01:52:13.528Z,78.03
2023-03-12T01:53:13.522Z,78.10
2023-03-12T01:54:13.503Z,77.69
2023-03-12T01:55:14.323Z,77.79
2023-03-12T01:56:13.478Z,77.48
2023-03-12T01:57:13.478Z,77.48
2023-03-12T01:58:13.456Z,77.48
2023-03-12T01:59:13.442Z,77.79
2023-03-12T02:00:13.440Z,77.34
2023-03-12T02:01:13.505Z,77.55
2023-03-12T02:02:13.429Z,77.37
2023-03-12T02:03:13.404Z,77.58
2023-03-12T02:04:13.482Z,77.03
2023-03-12T02:05:13.413Z,77.37
2023-03-12T02:06:13.365Z,77.13
2023-03-12T02:07:13.534Z,77.86
2023-03-12T02:08:13.362Z,77.65
2023-03-12T02:09:13.337Z,77.75
2023-03-12T02:10:13.326Z,77.75
2023-03-12T02:11:13.340Z,77.55
2023-03-12T02:12:13.332Z,77.55
2023-03-12T02:13:13.301Z,77.55
2023-03-12T02:14:13.283Z,77.55
2023-03-12T02:15:13.275Z,77.44
2023-03-12T02:16:13.378Z,77.55
2023-03-12T02:17:13.822Z,77.86
2023-03-12T02:18:13.263Z,77.75
2023-03-12T02:19:13.803Z,77.65
2023-03-12T02:20:13.229Z,77.72
2023-03-12T02:21:13.209Z,77.61
2023-03-12T02:22:13.217Z,77.75
2023-03-12T02:23:13.179Z,77.55
2023-03-12T02:24:13.174Z,77.65
2023-03-12T02:25:13.163Z,77.65
2023-03-12T02:26:13.152Z,77.51
2023-03-12T02:27:13.176Z,77.86
2023-03-12T02:28:13.134Z,77.72
2023-03-12T02:29:13.806Z,77.72
2023-03-12T02:30:13.111Z,77.75
2023-03-12T02:31:13.113Z,77.65
2023-03-12T02:32:13.094Z,77.96
2023-03-12T02:33:13.092Z,77.86
2023-03-12T02:34:13.076Z,77.65
2023-03-12T02:35:13.054Z,77.55
2023-03-12T02:36:13.111Z,78.07
2023-03-12T02:37:13.037Z,78.00
2023-03-12T02:38:13.024Z,77.96
2023-03-12T02:39:13.079Z,78.07
2023-03-12T02:40:13.015Z,78.07
2023-03-12T02:41:12.993Z,77.75
2023-03-12T02:42:12.974Z,77.55
2023-03-12T02:43:13.048Z,77.65
2023-03-12T02:44:12.951Z,78.10
2023-03-12T02:45:13.332Z,78.42
2023-03-12T02:46:13.000Z,78.63
2023-03-12T02:47:12.931Z,78.42
2023-03-12T02:48:12.919Z,78.24
2023-03-12T02:49:12.903Z,78.52
2023-03-12T02:50:13.331Z,79.04
2023-03-12T02:51:12.905Z,78.87
2023-03-12T02:52:12.866Z,79.18
2023-03-12T02:53:12.864Z,78.97
2023-03-12T02:54:12.847Z,79.60
2023-03-12T02:55:12.855Z,79.49
2023-03-12T02:56:12.833Z,79.60
2023-03-12T02:57:12.815Z,79.63
2023-03-12T02:58:12.802Z,79.94
2023-03-12T02:59:12.822Z,80.05
2023-03-12T03:00:12.814Z,80.57
2023-03-12T03:01:12.800Z,80.88
2023-03-12T03:02:12.762Z,80.61
2023-03-12T03:03:12.765Z,81.13
2023-03-12T03:04:12.807Z,81.13
2023-03-12T03:05:12.726Z,81.23
2023-03-12T03:06:12.738Z,81.34
2023-03-12T03:07:12.731Z,80.71
2023-03-12T03:08:12.696Z,81.65
2023-03-12T03:09:12.706Z,81.59
2023-03-12T03:10:12.674Z,81.76
2023-03-12T03:11:12.662Z,81.86
2023-03-12T03:12:12.656Z,81.45
2023-03-12T03:13:12.642Z,82.10
2023-03-12T03:14:12.816Z,82.00
2023-03-12T03:15:12.642Z,82.10
2023-03-12T03:16:12.761Z,82.10
2023-03-12T03:17:12.602Z,82.42
2023-03-12T03:18:12.586Z,82.42
2023-03-12T03:19:12.778Z,82.53
2023-03-12T03:20:12.579Z,82.63
2023-03-12T03:21:12.554Z,82.42
2023-03-12T03:22:12.541Z,82.63
2023-03-12T03:23:12.538Z,82.73
2023-03-12T03:24:12.542Z,82.73
2023-03-12T03:25:12.531Z,82.73
2023-03-12T03:26:12.510Z,82.63
2023-03-12T03:27:12.520Z,82.53
2023-03-12T03:28:12.488Z,82.73
2023-03-12T03:29:12.479Z,82.84
2023-03-12T03:30:12.453Z,82.84
2023-03-12T03:31:12.559Z,82.87
2023-03-12T03:32:12.438Z,82.94
2023-03-12T03:33:12.421Z,82.94
2023-03-12T03:34:12.515Z,83.18
2023-03-12T03:35:12.420Z,83.36
2023-03-12T03:36:12.387Z,83.40
2023-03-12T03:37:12.373Z,83.25
2023-03-12T03:38:12.362Z,83.50
2023-03-12T03:39:12.355Z,83.50
2023-03-12T03:40:12.476Z,83.71
2023-03-12T03:41:12.336Z,83.71
2023-03-12T03:42:12.354Z,83.61
2023-03-12T03:43:12.308Z,83.81
2023-03-12T03:44:12.314Z,84.12
2023-03-12T03:45:12.286Z,84.12
2023-03-12T03:46:12.349Z,83.81
2023-03-12T03:47:12.289Z,84.02
2023-03-12T03:48:12.253Z,84.02
2023-03-12T03:49:12.274Z,84.23
2023-03-12T03:50:12.231Z,84.34
2023-03-12T03:51:12.223Z,84.12
2023-03-12T03:52:12.215Z,83.81
2023-03-12T03:53:12.201Z,84.44
2023-03-12T03:54:12.280Z,84.23
2023-03-12T03:55:12.193Z,84.58
2023-03-12T03:56:12.177Z,84.34
2023-03-12T03:57:12.199Z,84.44
2023-03-12T03:58:12.145Z,84.69
2023-03-12T03:59:12.147Z,84.58
2023-03-12T04:00:12.121Z,84.58
2023-03-12T04:01:12.114Z,84.44
2023-03-12T04:02:12.095Z,84.58
2023-03-12T04:03:12.143Z,84.48
2023-03-12T04:04:12.083Z,84.69
2023-03-12T04:05:20.009Z,84.58
2023-03-12T04:06:12.082Z,84.58
2023-03-12T04:07:12.053Z,84.69
2023-03-12T04:08:12.050Z,84.69
2023-03-12T04:09:12.112Z,84.27
2023-03-12T04:10:12.019Z,84.58
2023-03-12T04:11:12.006Z,84.69
2023-03-12T04:12:11.993Z,84.89
2023-03-12T04:13:11.977Z,84.58
2023-03-12T04:14:11.998Z,84.89
2023-03-12T04:15:11.961Z,85.11
2023-03-12T04:16:12.039Z,85.11
2023-03-12T04:17:11.939Z,85.21
2023-03-12T04:18:11.977Z,85.21
2023-03-12T04:19:11.930Z,85.11
2023-03-12T04:20:11.928Z,84.89
2023-03-12T04:21:11.896Z,85.31
2023-03-12T04:22:11.887Z,85.31
2023-03-12T04:23:11.868Z,85.31
2023-03-12T04:24:11.858Z,85.42
2023-03-12T04:25:11.865Z,85.52
2023-03-12T04:26:11.837Z,85.25
2023-03-12T04:27:11.844Z,86.05
2023-03-12T04:28:11.876Z,85.83
2023-03-12T04:29:11.817Z,85.83
2023-03-12T04:30:11.791Z,85.83
2023-03-12T04:31:11.858Z,85.67
2023-03-12T04:32:11.770Z,86.19
2023-03-12T04:33:11.761Z,86.25
2023-03-12T04:34:14.322Z,86.05
2023-03-12T04:35:11.761Z,85.88
2023-03-12T04:36:11.777Z,86.08
2023-03-12T04:37:11.767Z,86.51
2023-03-12T04:38:11.711Z,86.88
2023-03-12T04:39:11.712Z,86.92
2023-03-12T04:40:11.685Z,86.61
2023-03-12T04:41:11.680Z,86.61
2023-03-12T04:42:11.659Z,87.45
2023-03-12T04:43:11.674Z,87.19
2023-03-12T04:44:12.895Z,87.09
2023-03-12T04:45:11.642Z,87.13
2023-03-12T04:46:11.864Z,87.02
2023-03-12T04:47:11.754Z,87.09
2023-03-12T04:48:11.595Z,87.19
2023-03-12T04:49:11.592Z,87.30
2023-03-12T04:50:11.578Z,87.71
2023-03-12T04:51:11.609Z,87.86
2023-03-12T04:52:11.562Z,87.71
2023-03-12T04:53:11.588Z,87.93
2023-03-12T04:54:11.538Z,87.76
2023-03-12T04:55:11.530Z,87.86
2023-03-12T04:56:11.546Z,88.07
2023-03-12T04:57:11.507Z,87.86
2023-03-12T04:58:11.493Z,88.07
2023-03-12T04:59:11.484Z,87.93
2023-03-12T05:00:11.474Z,88.49
2023-03-12T05:01:11.462Z,88.07
2023-03-12T05:02:11.464Z,88.49
2023-03-12T05:03:11.495Z,89.43
2023-03-12T05:04:11.513Z,88.80
2023-03-12T05:05:11.422Z,88.90
2023-03-12T05:06:11.528Z,89.43
2023-03-12T05:07:11.414Z,89.11
2023-03-12T05:08:11.389Z,89.22
2023-03-12T05:09:11.384Z,89.11
2023-03-12T05:10:11.395Z,89.05
2023-03-12T05:11:11.353Z,89.36
2023-03-12T05:12:11.349Z,88.90
2023-03-12T05:13:11.334Z,89.11
2023-03-12T05:14:11.359Z,89.22
2023-03-12T05:15:11.313Z,89.22
2023-03-12T05:16:11.340Z,89.58
2023-03-12T05:17:11.305Z,89.47
2023-03-12T05:18:11.276Z,89.26
2023-03-12T05:19:11.266Z,89.58
2023-03-12T05:20:11.312Z,89.68
2023-03-12T05:21:11.285Z,89.68
2023-03-12T05:22:11.229Z,89.58
2023-03-12T05:23:11.247Z,89.68
2023-03-12T05:24:11.215Z,89.58
2023-03-12T05:25:11.213Z,89.99
2023-03-12T05:26:11.191Z,89.99
2023-03-12T05:27:11.199Z,90.37
2023-03-12T05:28:11.180Z,89.64
2023-03-12T05:29:11.159Z,89.74
2023-03-12T05:30:11.209Z,89.68
2023-03-12T05:31:11.162Z,89.78
2023-03-12T05:32:11.178Z,89.74
2023-03-12T05:33:11.119Z,89.58
2023-03-12T05:34:11.110Z,89.58
2023-03-12T05:35:11.111Z,89.89
2023-03-12T05:36:11.218Z,90.06
2023-03-12T05:37:11.080Z,89.78
2023-03-12T05:38:11.064Z,90.06
2023-03-12T05:39:11.239Z,89.84
2023-03-12T05:40:11.057Z,89.95
2023-03-12T05:41:11.060Z,89.95
2023-03-12T05:42:11.021Z,89.95
2023-03-12T05:43:11.017Z,89.95
2023-03-12T05:44:11.016Z,89.64
2023-03-12T05:45:10.995Z,89.78
2023-03-12T05:46:11.093Z,89.84
2023-03-12T05:47:10.971Z,89.64
2023-03-12T05:48:10.974Z,89.84
2023-03-12T05:49:11.005Z,89.64
2023-03-12T05:50:10.936Z,89.11
2023-03-12T05:51:10.926Z,89.11
2023-03-12T05:52:11.175Z,89.22
2023-03-12T05:53:10.908Z,89.11
2023-03-12T05:54:10.904Z,89.01
2023-03-12T05:55:10.904Z,89.11
2023-03-12T05:56:10.867Z,89.01
2023-03-12T05:57:10.863Z,89.18
2023-03-12T05:58:10.856Z,89.07
2023-03-12T05:59:10.834Z,89.32
2023-03-12T06:00:10.827Z,89.11
2023-03-12T06:01:10.871Z,88.76
2023-03-12T06:02:10.872Z,88.65
2023-03-12T06:03:10.858Z,88.55
2023-03-12T06:04:10.776Z,88.49
2023-03-12T06:05:10.771Z,88.24
2023-03-12T06:06:10.834Z,88.28
2023-03-12T06:07:10.750Z,88.17
2023-03-12T06:08:10.763Z,88.13
2023-03-12T06:09:10.730Z,88.13
2023-03-12T06:10:10.712Z,87.82
2023-03-12T06:11:10.727Z,87.82
2023-03-12T06:12:10.692Z,87.93
2023-03-12T06:13:10.693Z,88.13
2023-03-12T06:14:10.675Z,87.71
2023-03-12T06:15:10.661Z,87.82
2023-03-12T06:16:10.713Z,87.61
2023-03-12T06:17:10.642Z,87.51
2023-03-12T06:18:10.643Z,87.51
2023-03-12T06:19:10.642Z,87.40
2023-03-12T06:20:11.340Z,87.30
2023-03-12T06:21:10.598Z,87.30
2023-03-12T06:22:10.587Z,87.15
2023-03-12T06:23:10.589Z,87.09
2023-03-12T06:24:10.621Z,86.84
2023-03-12T06:25:10.549Z,86.84
2023-03-12T06:26:10.545Z,86.43
2023-03-12T06:27:10.550Z,86.63
2023-03-12T06:28:10.540Z,86.94
2023-03-12T06:29:10.530Z,86.84
2023-03-12T06:30:10.502Z,87.05
2023-03-12T06:31:10.532Z,86.84
2023-03-12T06:32:10.540Z,85.97
2023-03-12T06:33:10.490Z,85.97
2023-03-12T06:34:10.459Z,86.35
2023-03-12T06:35:10.443Z,85.68
2023-03-12T06:36:10.436Z,85.02
2023-03-12T06:37:10.423Z,83.23
2023-03-12T06:38:10.416Z,81.43
2023-03-12T06:39:10.421Z,79.30
2023-03-12T06:40:10.394Z,76.85
2023-03-12T06:41:10.376Z,75.12
2023-03-12T06:42:10.387Z,73.74
2023-03-12T06:43:10.368Z,73.36
2023-03-12T06:44:10.348Z,72.36
2023-03-12T06:45:10.330Z,72.33
2023-03-12T06:46:10.357Z,70.88
2023-03-12T06:47:10.326Z,69.58
2023-03-12T06:48:11.358Z,68.21
2023-03-12T06:49:10.285Z,67.29
2023-03-12T06:50:10.283Z,64.75
2023-03-12T06:51:10.264Z,63.59
2023-03-12T06:52:10.266Z,61.79
2023-03-12T06:53:10.260Z,61.55
2023-03-12T06:54:10.240Z,60.60
2023-03-12T06:55:10.230Z,59.82
2023-03-12T06:56:10.235Z,58.26
2023-03-12T06:57:10.201Z,57.51
2023-03-12T06:58:10.197Z,56.97
2023-03-12T06:59:10.198Z,56.20
2023-03-12T07:00:10.178Z,54.77
2023-03-12T07:01:10.148Z,54.67
2023-03-12T07:02:10.228Z,54.23
2023-03-12T07:03:10.137Z,54.00
2023-03-12T07:04:10.121Z,53.75
2023-03-12T07:05:10.212Z,51.98
2023-03-12T07:06:10.101Z,51.45
2023-03-12T07:07:10.100Z,51.17
2023-03-12T07:08:10.110Z,51.57
2023-03-12T07:09:10.075Z,51.07
2023-03-12T07:10:10.064Z,51.55
2023-03-12T07:11:10.049Z,50.18
2023-03-12T07:12:10.062Z,50.18
2023-03-12T07:13:10.028Z,49.34
2023-03-12T07:14:10.017Z,49.29
2023-03-12T07:15:10.041Z,48.03
2023-03-12T07:16:10.184Z,47.58
2023-03-12T07:17:09.989Z,47.58
2023-03-12T07:18:09.972Z,46.68
2023-03-12T07:19:10.107Z,46.89
2023-03-12T07:20:09.949Z,46.48
2023-03-12T07:21:09.940Z,47.29
2023-03-12T07:22:09.967Z,47.01
2023-03-12T07:23:09.916Z,47.72
2023-03-12T07:24:09.920Z,48.15
2023-03-12T07:25:09.890Z,47.58
2023-03-12T07:26:09.926Z,49.30
2023-03-12T07:27:09.871Z,50.85
2023-03-12T07:28:09.925Z,53.69
2023-03-12T07:29:09.849Z,54.10
2023-03-12T07:30:09.844Z,55.02
2023-03-12T07:31:09.918Z,54.72
2023-03-12T07:32:09.843Z,54.00
2023-03-12T07:33:09.962Z,55.26
2023-03-12T07:34:09.913Z,55.72
2023-03-12T07:35:09.790Z,57.72
2023-03-12T07:36:09.951Z,58.31
2023-03-12T07:37:09.783Z,57.56
2023-03-12T07:38:09.811Z,56.74
2023-03-12T07:39:09.731Z,57.28
2023-03-12T07:40:09.956Z,57.56
2023-03-12T07:41:09.763Z,57.03
2023-03-12T07:42:09.743Z,56.28
2023-03-12T07:43:09.706Z,55.49
2023-03-12T07:44:09.776Z,55.43
2023-03-12T07:45:09.697Z,54.03
2023-03-12T07:46:09.658Z,52.11
2023-03-12T07:47:22.853Z,50.86
2023-03-12T07:48:10.750Z,49.79
2023-03-12T07:49:09.624Z,48.75
2023-03-12T07:50:09.691Z,48.52
2023-03-12T07:51:09.607Z,48.19
2023-03-12T07:52:09.644Z,47.69
2023-03-12T07:53:09.589Z,48.11
2023-03-12T07:54:09.567Z,49.05
2023-03-12T07:55:09.771Z,48.24
2023-03-12T07:56:09.704Z,48.73
2023-03-12T07:57:09.803Z,48.75
2023-03-12T07:58:09.989Z,48.10
2023-03-12T07:59:09.665Z,47.85
2023-03-12T08:00:09.556Z,46.30
2023-03-12T08:01:09.549Z,46.52
2023-03-12T08:02:09.579Z,45.14
2023-03-12T08:03:09.831Z,45.90
2023-03-12T08:04:09.630Z,43.87
2023-03-12T08:05:09.544Z,44.44
2023-03-12T08:06:09.525Z,43.23
2023-03-12T08:07:09.635Z,42.46
2023-03-12T08:08:09.522Z,42.11
2023-03-12T08:09:09.403Z,40.75
2023-03-12T08:10:09.455Z,39.79
2023-03-12T08:11:09.404Z,39.26
2023-03-12T08:12:09.441Z,38.34
2023-03-12T08:13:09.459Z,38.34
2023-03-12T08:14:09.414Z,37.65
2023-03-12T08:15:09.328Z,38.51
2023-03-12T08:16:09.689Z,40.73
2023-03-12T08:17:09.325Z,42.94
2023-03-12T08:18:09.296Z,43.04
2023-03-12T08:19:09.306Z,43.67
2023-03-12T08:20:09.313Z,43.47
2023-03-12T08:21:09.260Z,43.44
2023-03-12T08:22:09.254Z,43.04
2023-03-12T08:23:09.246Z,43.32
2023-03-12T08:24:09.232Z,41.56
2023-03-12T08:25:09.223Z,41.42
2023-03-12T08:26:09.224Z,40.61
2023-03-12T08:27:09.223Z,40.31
2023-03-12T08:28:09.254Z,41.30
2023-03-12T08:29:09.180Z,39.66
2023-03-12T08:30:09.297Z,39.66
2023-03-12T08:31:09.164Z,40.13
2023-03-12T08:32:09.272Z,39.77
2023-03-12T08:33:09.204Z,38.34
2023-03-12T08:34:09.118Z,36.77
2023-03-12T08:35:09.146Z,35.97
2023-03-12T08:36:09.104Z,36.76
2023-03-12T08:37:09.083Z,36.05
2023-03-12T08:38:09.074Z,36.35
2023-03-12T08:39:09.060Z,36.07
2023-03-12T08:40:09.066Z,35.93
2023-03-12T08:41:09.034Z,34.92
2023-03-12T08:42:09.027Z,35.46
2023-03-12T08:43:09.017Z,36.40
2023-03-12T08:44:09.007Z,37.26
2023-03-12T08:45:09.010Z,38.17
2023-03-12T08:46:11.116Z,38.21
2023-03-12T08:47:08.972Z,38.55
2023-03-12T08:48:08.963Z,38.50
2023-03-12T08:49:08.962Z,40.45
2023-03-12T08:50:08.948Z,41.40
2023-03-12T08:51:08.958Z,41.72
2023-03-12T08:52:08.917Z,42.77
2023-03-12T08:53:08.934Z,43.23
2023-03-12T08:54:08.897Z,43.44
2023-03-12T08:55:08.900Z,45.04
2023-03-12T08:56:08.876Z,45.26
2023-03-12T08:57:08.864Z,47.02
2023-03-12T08:58:08.881Z,46.71
2023-03-12T08:59:08.852Z,46.61
2023-03-12T09:00:08.835Z,46.38
2023-03-12T09:01:08.866Z,46.71
2023-03-12T09:02:08.812Z,47.83
2023-03-12T09:03:08.886Z,46.73
2023-03-12T09:04:08.794Z,47.65
2023-03-12T09:05:08.772Z,48.00
2023-03-12T09:06:08.783Z,48.10
2023-03-12T09:07:08.776Z,48.92
2023-03-12T09:08:08.743Z,48.00
2023-03-12T09:09:08.741Z,48.21
2023-03-12T09:10:08.743Z,47.96
2023-03-12T09:11:08.709Z,47.44
2023-03-12T09:12:08.706Z,44.02
2023-03-12T09:13:08.690Z,42.43
2023-03-12T09:14:46.348Z,42.00
2023-03-12T09:15:09.671Z,41.07
2023-03-12T09:16:08.665Z,40.65
2023-03-12T09:17:08.646Z,39.82
2023-03-12T09:18:08.629Z,39.80
2023-03-12T09:19:08.637Z,39.26
2023-03-12T09:20:08.605Z,38.39
2023-03-12T09:21:08.602Z,37.92
2023-03-12T09:22:08.589Z,35.95
2023-03-12T09:23:08.620Z,35.30
2023-03-12T09:24:08.560Z,33.91
2023-03-12T09:25:08.571Z,34.96
2023-03-12T09:26:08.540Z,35.06
2023-03-12T09:27:08.535Z,35.45
2023-03-12T09:28:08.517Z,33.64
2023-03-12T09:29:08.523Z,35.48
2023-03-12T09:30:08.504Z,36.62
2023-03-12T09:31:08.602Z,36.44
2023-03-12T09:32:08.475Z,35.95
2023-03-12T09:33:08.458Z,35.83
2023-03-12T09:34:08.461Z,36.40
2023-03-12T09:35:08.460Z,35.16
2023-03-12T09:36:08.505Z,34.07
2023-03-12T09:37:08.452Z,35.14
2023-03-12T09:38:08.405Z,37.21
2023-03-12T09:39:08.414Z,37.34
2023-03-12T09:40:08.403Z,38.62
2023-03-12T09:41:08.372Z,38.88
2023-03-12T09:42:08.360Z,41.24
2023-03-12T09:43:08.356Z,42.57
2023-03-12T09:44:08.338Z,41.94
2023-03-12T09:45:08.345Z,41.64
2023-03-12T09:46:08.518Z,42.25
2023-03-12T09:47:08.315Z,41.93
2023-03-12T09:48:08.291Z,40.91
2023-03-12T09:49:08.307Z,41.50
2023-03-12T09:50:08.332Z,40.69
2023-03-12T09:51:08.264Z,41.74
2023-03-12T09:52:08.249Z,42.14
2023-03-12T09:53:08.237Z,42.49
2023-03-12T09:54:08.255Z,41.20
2023-03-12T09:55:08.255Z,38.77
2023-03-12T09:56:08.206Z,39.78
2023-03-12T09:57:08.233Z,39.62
2023-03-12T09:58:08.183Z,38.15
2023-03-12T09:59:08.170Z,37.58
2023-03-12T10:00:08.197Z,34.72
2023-03-12T10:01:08.147Z,33.97
2023-03-12T10:02:08.139Z,32.46
2023-03-12T10:03:08.185Z,32.79
2023-03-12T10:04:08.285Z,34.00
2023-03-12T10:05:08.187Z,33.67
2023-03-12T10:06:15.205Z,32.52
2023-03-12T10:07:08.082Z,31.90
2023-03-12T10:08:23.351Z,31.92
2023-03-12T10:09:09.057Z,32.36
2023-03-12T10:10:08.067Z,33.65
2023-03-12T10:11:08.058Z,35.41
2023-03-12T10:12:08.046Z,35.21
2023-03-12T10:13:08.017Z,36.07
2023-03-12T10:14:08.008Z,36.98
2023-03-12T10:15:07.996Z,36.55
2023-03-12T10:16:08.061Z,36.22
2023-03-12T10:17:07.981Z,34.91
2023-03-12T10:18:08.076Z,36.17
2023-03-12T10:19:07.952Z,37.30
2023-03-12T10:20:08.039Z,37.30
2023-03-12T10:21:07.938Z,38.01
2023-03-12T10:22:07.959Z,37.26
2023-03-12T10:23:07.904Z,35.82
2023-03-12T10:24:07.899Z,36.24
2023-03-12T10:25:07.884Z,36.24
2023-03-12T10:26:07.870Z,36.24
2023-03-12T10:27:08.082Z,36.49
2023-03-12T10:28:07.851Z,38.52
2023-03-12T10:29:07.902Z,40.93
2023-03-12T10:30:07.828Z,41.05
2023-03-12T10:31:07.895Z,41.54
2023-03-12T10:32:07.812Z,41.19
2023-03-12T10:33:07.792Z,41.11
2023-03-12T10:34:07.808Z,41.31
2023-03-12T10:35:07.773Z,41.11
2023-03-12T10:36:07.846Z,41.33
2023-03-12T10:37:07.754Z,41.13
2023-03-12T10:38:07.739Z,41.24
2023-03-12T10:39:07.733Z,40.38
2023-03-12T10:40:07.716Z,40.34
2023-03-12T10:41:07.759Z,39.90
2023-03-12T10:42:07.694Z,38.37
2023-03-12T10:43:07.703Z,37.90
2023-03-12T10:44:07.686Z,37.84
2023-03-12T10:45:07.661Z,38.50
2023-03-12T10:46:07.727Z,39.64
2023-03-12T10:47:07.667Z,39.53
2023-03-12T10:48:07.626Z,40.08
2023-03-12T10:49:07.622Z,39.67
2023-03-12T10:50:07.606Z,40.45
2023-03-12T10:51:07.632Z,39.48
2023-03-12T10:52:07.582Z,38.11
2023-03-12T10:53:07.574Z,36.17
2023-03-12T10:54:07.561Z,36.39
2023-03-12T10:55:07.558Z,37.64
2023-03-12T10:56:07.582Z,36.94
2023-03-12T10:57:07.565Z,36.15
2023-03-12T10:58:07.569Z,37.88
2023-03-12T10:59:07.533Z,37.52
2023-03-12T11:00:07.530Z,36.57
2023-03-12T11:01:07.493Z,36.21
2023-03-12T11:02:07.605Z,36.63
2023-03-12T11:03:07.468Z,37.25
2023-03-12T11:04:07.454Z,36.96
2023-03-12T11:05:07.443Z,38.72
2023-03-12T11:06:07.449Z,39.18
2023-03-12T11:07:07.522Z,38.78
2023-03-12T11:08:07.408Z,40.38
2023-03-12T11:09:16.558Z,39.01
2023-03-12T11:10:08.412Z,38.39
2023-03-12T11:11:07.401Z,38.06
2023-03-12T11:12:07.383Z,37.57
2023-03-12T11:13:07.434Z,38.72
2023-03-12T11:14:07.357Z,39.47
2023-03-12T11:15:07.354Z,38.72
2023-03-12T11:16:07.392Z,38.86
2023-03-12T11:17:07.336Z,39.73
2023-03-12T11:18:07.308Z,40.01
2023-03-12T11:19:07.291Z,41.16
2023-03-12T11:20:07.281Z,38.84
2023-03-12T11:21:07.266Z,40.78
2023-03-12T11:22:07.272Z,40.03
2023-03-12T11:23:07.247Z,40.31
2023-03-12T11:24:07.573Z,40.01
2023-03-12T11:25:07.231Z,41.25
2023-03-12T11:26:07.265Z,41.25
2023-03-12T11:27:07.218Z,41.23
2023-03-12T11:28:07.249Z,42.14
2023-03-12T11:29:07.203Z,42.55
2023-03-12T11:30:07.222Z,42.69
2023-03-12T11:31:07.490Z,42.80
2023-03-12T11:32:07.200Z,42.59
2023-03-12T11:33:07.145Z,42.69
2023-03-12T11:34:07.133Z,41.16
2023-03-12T11:35:07.111Z,41.78
2023-03-12T11:36:07.105Z,41.57
2023-03-12T11:37:07.102Z,42.41
2023-03-12T11:38:07.092Z,43.02
2023-03-12T11:39:07.067Z,42.12
2023-03-12T11:40:07.054Z,42.33
2023-03-12T11:41:07.048Z,42.76
2023-03-12T11:42:07.074Z,42.96
2023-03-12T11:43:07.040Z,43.06
2023-03-12T11:44:07.011Z,43.63
2023-03-12T11:45:07.016Z,42.88
2023-03-12T11:46:06.986Z,42.65
2023-03-12T11:47:07.034Z,40.86
2023-03-12T11:48:06.966Z,39.50
2023-03-12T11:49:07.062Z,38.80
2023-03-12T11:50:06.977Z,40.47
2023-03-12T11:51:06.938Z,40.86
2023-03-12T11:52:06.927Z,40.26
2023-03-12T11:53:06.932Z,41.10
2023-03-12T11:54:06.905Z,41.20
2023-03-12T11:55:06.883Z,41.42
2023-03-12T11:56:06.873Z,42.16
2023-03-12T11:57:06.866Z,42.24
2023-03-12T11:58:06.873Z,42.36
2023-03-12T11:59:06.843Z,41.85
2023-03-12T12:00:06.835Z,41.35
2023-03-12T12:01:06.824Z,41.35
2023-03-12T12:02:06.861Z,42.14
2023-03-12T12:03:06.861Z,42.79
2023-03-12T12:04:06.799Z,42.49
2023-03-12T12:05:06.778Z,43.41
2023-03-12T12:06:06.768Z,42.77
2023-03-12T12:07:06.764Z,42.08
2023-03-12T12:08:06.760Z,43.73
2023-03-12T12:09:06.877Z,43.63
2023-03-12T12:10:06.720Z,43.55
2023-03-12T12:11:06.735Z,43.47
2023-03-12T12:12:06.711Z,44.32
2023-03-12T12:13:06.688Z,45.35
2023-03-12T12:14:06.675Z,46.09
2023-03-12T12:15:06.687Z,45.78
2023-03-12T12:16:06.726Z,46.85
2023-03-12T12:17:06.664Z,47.41
2023-03-12T12:18:06.632Z,47.94
2023-03-12T12:19:06.641Z,48.66
2023-03-12T12:20:06.609Z,49.71
2023-03-12T12:21:06.603Z,49.60
2023-03-12T12:22:06.597Z,48.97
2023-03-12T12:23:06.575Z,49.46
2023-03-12T12:24:06.560Z,49.43
2023-03-12T12:25:06.577Z,49.49
2023-03-12T12:26:06.546Z,48.57
2023-03-12T12:27:06.529Z,47.63
2023-03-12T12:28:06.595Z,47.01
2023-03-12T12:29:06.503Z,48.01
2023-03-12T12:30:06.609Z,47.48
2023-03-12T12:31:06.485Z,46.25
2023-03-12T12:32:06.543Z,46.66
2023-03-12T12:33:06.459Z,46.58
2023-03-12T12:34:06.458Z,45.98
2023-03-12T12:35:06.460Z,44.59
2023-03-12T12:36:06.463Z,44.10
2023-03-12T12:37:06.419Z,43.90
2023-03-12T12:38:06.409Z,44.53
2023-03-12T12:39:06.401Z,45.97
2023-03-12T12:40:06.385Z,45.58
2023-03-12T12:41:06.388Z,45.58
2023-03-12T12:42:06.363Z,46.09
2023-03-12T12:43:06.423Z,45.99
2023-03-12T12:44:06.350Z,45.56
2023-03-12T12:45:06.326Z,45.58
2023-03-12T12:46:06.412Z,46.09
2023-03-12T12:47:06.339Z,45.25
2023-03-12T12:48:06.300Z,45.89
2023-03-12T12:49:06.988Z,45.78
2023-03-12T12:50:06.273Z,46.09
2023-03-12T12:51:08.780Z,45.60
2023-03-12T12:52:06.253Z,45.29